sensor_id;sensor_type;location;lat;lon;timestamp;temperature;humidity
7362;DHT22;3721;44.490;11.220;2022-08-18T00:02:27;26.30;76.80
7362;DHT22;3721;44.490;11.220;2022-08-18T00:04:54;26.30;76.90
7362;DHT22;3721;44.490;11.220;2022-08-18T00:07:24;26.30;77.00
7362;DHT22;3721;44.490;11.220;2022-08-18T00:09:50;26.30;76.90
7362;DHT22;3721;44.490;11.220;2022-08-18T00:12:27;26.30;76.90
7362;DHT22;3721;44.490;11.220;2022-08-18T00:14:54;26.30;76.80
7362;DHT22;3721;44.490;11.220;2022-08-18T00:17:21;26.20;76.70
7362;DHT22;3721;44.490;11.220;2022-08-18T00:19:47;26.20;76.70
7362;DHT22;3721;44.490;11.220;2022-08-18T00:22:16;26.20;76.80
7362;DHT22;3721;44.490;11.220;2022-08-18T00:24:48;26.20;76.80
7362;DHT22;3721;44.490;11.220;2022-08-18T00:27:15;26.20;76.90
7362;DHT22;3721;44.490;11.220;2022-08-18T00:29:43;26.10;77.00
7362;DHT22;3721;44.490;11.220;2022-08-18T00:32:24;26.10;77.30
7362;DHT22;3721;44.490;11.220;2022-08-18T00:34:51;26.10;77.70
7362;DHT22;3721;44.490;11.220;2022-08-18T00:37:18;26.10;78.30
7362;DHT22;3721;44.490;11.220;2022-08-18T00:39:43;26.00;78.80
7362;DHT22;3721;44.490;11.220;2022-08-18T00:42:19;26.00;79.30
7362;DHT22;3721;44.490;11.220;2022-08-18T00:44:45;26.00;79.60
7362;DHT22;3721;44.490;11.220;2022-08-18T00:47:11;26.00;79.70
7362;DHT22;3721;44.490;11.220;2022-08-18T00:49:38;26.00;79.30
7362;DHT22;3721;44.490;11.220;2022-08-18T00:52:05;26.00;78.90
7362;DHT22;3721;44.490;11.220;2022-08-18T00:54:32;26.00;78.70
7362;DHT22;3721;44.490;11.220;2022-08-18T00:57:02;25.90;78.40
7362;DHT22;3721;44.490;11.220;2022-08-18T00:59:51;25.80;78.20
7362;DHT22;3721;44.490;11.220;2022-08-18T01:02:25;25.80;78.20
7362;DHT22;3721;44.490;11.220;2022-08-18T01:04:59;25.70;78.30
7362;DHT22;3721;44.490;11.220;2022-08-18T01:07:36;25.70;78.50
7362;DHT22;3721;44.490;11.220;2022-08-18T01:10:05;25.60;78.40
7362;DHT22;3721;44.490;11.220;2022-08-18T01:12:32;25.60;78.50
7362;DHT22;3721;44.490;11.220;2022-08-18T01:14:58;25.60;78.60
7362;DHT22;3721;44.490;11.220;2022-08-18T01:17:26;25.60;78.70
7362;DHT22;3721;44.490;11.220;2022-08-18T01:20:16;25.50;78.70
7362;DHT22;3721;44.490;11.220;2022-08-18T01:23:14;25.50;78.80
7362;DHT22;3721;44.490;11.220;2022-08-18T01:25:41;25.50;78.80
7362;DHT22;3721;44.490;11.220;2022-08-18T01:28:37;25.50;78.90
7362;DHT22;3721;44.490;11.220;2022-08-18T01:31:04;25.50;79.00
7362;DHT22;3721;44.490;11.220;2022-08-18T01:33:33;25.50;79.00
7362;DHT22;3721;44.490;11.220;2022-08-18T01:36:11;25.40;79.00
7362;DHT22;3721;44.490;11.220;2022-08-18T01:38:42;25.40;79.20
7362;DHT22;3721;44.490;11.220;2022-08-18T01:41:08;25.40;79.30
7362;DHT22;3721;44.490;11.220;2022-08-18T01:43:34;25.40;79.30
7362;DHT22;3721;44.490;11.220;2022-08-18T01:46:01;25.40;79.40
7362;DHT22;3721;44.490;11.220;2022-08-18T01:48:33;25.40;79.50
7362;DHT22;3721;44.490;11.220;2022-08-18T01:51:00;25.40;79.70
7362;DHT22;3721;44.490;11.220;2022-08-18T01:53:27;25.40;79.90
7362;DHT22;3721;44.490;11.220;2022-08-18T01:55:53;25.40;80.00
7362;DHT22;3721;44.490;11.220;2022-08-18T01:58:20;25.40;79.80
7362;DHT22;3721;44.490;11.220;2022-08-18T02:00:53;25.40;79.80
7362;DHT22;3721;44.490;11.220;2022-08-18T02:03:30;25.40;79.80
7362;DHT22;3721;44.490;11.220;2022-08-18T02:06:00;25.30;79.80
7362;DHT22;3721;44.490;11.220;2022-08-18T02:08:27;25.30;79.80
7362;DHT22;3721;44.490;11.220;2022-08-18T02:10:53;25.30;79.90
7362;DHT22;3721;44.490;11.220;2022-08-18T02:13:19;25.30;80.00
7362;DHT22;3721;44.490;11.220;2022-08-18T02:15:45;25.30;80.10
7362;DHT22;3721;44.490;11.220;2022-08-18T02:18:15;25.30;80.30
7362;DHT22;3721;44.490;11.220;2022-08-18T02:20:42;25.30;80.60
7362;DHT22;3721;44.490;11.220;2022-08-18T02:23:09;25.30;80.90
7362;DHT22;3721;44.490;11.220;2022-08-18T02:25:34;25.30;81.20
7362;DHT22;3721;44.490;11.220;2022-08-18T02:28:00;25.40;81.50
7362;DHT22;3721;44.490;11.220;2022-08-18T02:30:26;25.40;81.70
7362;DHT22;3721;44.490;11.220;2022-08-18T02:32:52;25.40;82.00
7362;DHT22;3721;44.490;11.220;2022-08-18T02:35:17;25.40;82.10
7362;DHT22;3721;44.490;11.220;2022-08-18T02:37:43;25.40;82.30
7362;DHT22;3721;44.490;11.220;2022-08-18T02:40:13;25.40;82.30
7362;DHT22;3721;44.490;11.220;2022-08-18T02:42:39;25.40;82.30
7362;DHT22;3721;44.490;11.220;2022-08-18T02:45:05;25.40;82.50
7362;DHT22;3721;44.490;11.220;2022-08-18T02:47:31;25.30;82.50
7362;DHT22;3721;44.490;11.220;2022-08-18T02:49:57;25.20;82.60
7362;DHT22;3721;44.490;11.220;2022-08-18T02:52:23;25.20;82.70
7362;DHT22;3721;44.490;11.220;2022-08-18T02:55:00;25.10;82.60
7362;DHT22;3721;44.490;11.220;2022-08-18T02:57:29;25.20;82.70
7362;DHT22;3721;44.490;11.220;2022-08-18T02:59:56;25.20;82.80
7362;DHT22;3721;44.490;11.220;2022-08-18T03:02:22;25.20;82.90
7362;DHT22;3721;44.490;11.220;2022-08-18T03:04:48;25.20;82.90
7362;DHT22;3721;44.490;11.220;2022-08-18T03:07:15;25.20;83.10
7362;DHT22;3721;44.490;11.220;2022-08-18T03:09:42;25.20;83.40
7362;DHT22;3721;44.490;11.220;2022-08-18T03:12:08;25.10;83.70
7362;DHT22;3721;44.490;11.220;2022-08-18T03:14:35;25.10;84.20
7362;DHT22;3721;44.490;11.220;2022-08-18T03:17:04;25.10;84.50
7362;DHT22;3721;44.490;11.220;2022-08-18T03:19:30;25.10;85.00
7362;DHT22;3721;44.490;11.220;2022-08-18T03:21:57;25.10;85.50
7362;DHT22;3721;44.490;11.220;2022-08-18T03:24:25;25.10;85.60
7362;DHT22;3721;44.490;11.220;2022-08-18T03:26:52;25.20;85.90
7362;DHT22;3721;44.490;11.220;2022-08-18T03:29:19;25.20;86.20
7362;DHT22;3721;44.490;11.220;2022-08-18T03:31:45;25.20;86.30
7362;DHT22;3721;44.490;11.220;2022-08-18T03:34:13;25.20;86.40
7362;DHT22;3721;44.490;11.220;2022-08-18T03:36:39;25.20;86.70
7362;DHT22;3721;44.490;11.220;2022-08-18T03:39:10;25.20;87.10
7362;DHT22;3721;44.490;11.220;2022-08-18T03:41:39;25.20;87.20
7362;DHT22;3721;44.490;11.220;2022-08-18T03:44:08;25.20;87.50
7362;DHT22;3721;44.490;11.220;2022-08-18T03:46:34;25.20;87.60
7362;DHT22;3721;44.490;11.220;2022-08-18T03:49:00;25.20;87.70
7362;DHT22;3721;44.490;11.220;2022-08-18T03:51:29;25.20;88.00
7362;DHT22;3721;44.490;11.220;2022-08-18T03:53:58;25.30;88.30
7362;DHT22;3721;44.490;11.220;2022-08-18T03:56:27;25.20;88.30
7362;DHT22;3721;44.490;11.220;2022-08-18T03:58:56;25.30;88.50
7362;DHT22;3721;44.490;11.220;2022-08-18T04:01:27;25.30;88.70
7362;DHT22;3721;44.490;11.220;2022-08-18T04:03:58;25.30;88.80
7362;DHT22;3721;44.490;11.220;2022-08-18T04:06:34;25.30;88.90
7362;DHT22;3721;44.490;11.220;2022-08-18T04:09:02;25.30;89.00
7362;DHT22;3721;44.490;11.220;2022-08-18T04:11:32;25.30;89.00
7362;DHT22;3721;44.490;11.220;2022-08-18T04:13:58;25.30;89.10
7362;DHT22;3721;44.490;11.220;2022-08-18T04:16:25;25.30;89.10
7362;DHT22;3721;44.490;11.220;2022-08-18T04:18:51;25.30;89.00
7362;DHT22;3721;44.490;11.220;2022-08-18T04:21:17;25.30;89.10
7362;DHT22;3721;44.490;11.220;2022-08-18T04:23:43;25.30;89.10
7362;DHT22;3721;44.490;11.220;2022-08-18T04:26:10;25.30;89.00
7362;DHT22;3721;44.490;11.220;2022-08-18T04:28:37;25.30;89.10
7362;DHT22;3721;44.490;11.220;2022-08-18T04:31:09;25.20;89.10
7362;DHT22;3721;44.490;11.220;2022-08-18T04:33:35;25.30;89.20
7362;DHT22;3721;44.490;11.220;2022-08-18T04:36:08;25.20;89.10
7362;DHT22;3721;44.490;11.220;2022-08-18T04:38:35;25.30;89.10
7362;DHT22;3721;44.490;11.220;2022-08-18T04:41:01;25.30;88.80
7362;DHT22;3721;44.490;11.220;2022-08-18T04:43:28;25.30;88.60
7362;DHT22;3721;44.490;11.220;2022-08-18T04:45:55;25.30;88.40
7362;DHT22;3721;44.490;11.220;2022-08-18T04:48:30;25.30;88.20
7362;DHT22;3721;44.490;11.220;2022-08-18T04:51:10;25.30;88.10
7362;DHT22;3721;44.490;11.220;2022-08-18T04:53:37;25.30;88.10
7362;DHT22;3721;44.490;11.220;2022-08-18T04:58:44;25.30;88.50
7362;DHT22;3721;44.490;11.220;2022-08-18T05:01:15;25.30;88.60
7362;DHT22;3721;44.490;11.220;2022-08-18T05:03:41;25.30;88.70
7362;DHT22;3721;44.490;11.220;2022-08-18T05:06:08;25.30;88.80
7362;DHT22;3721;44.490;11.220;2022-08-18T05:08:34;25.40;88.90
7362;DHT22;3721;44.490;11.220;2022-08-18T05:11:00;25.30;89.00
7362;DHT22;3721;44.490;11.220;2022-08-18T05:13:26;25.40;89.10
7362;DHT22;3721;44.490;11.220;2022-08-18T05:15:56;25.40;89.20
7362;DHT22;3721;44.490;11.220;2022-08-18T05:18:23;25.40;89.10
7362;DHT22;3721;44.490;11.220;2022-08-18T05:20:54;25.40;89.40
7362;DHT22;3721;44.490;11.220;2022-08-18T05:23:21;25.40;89.40
7362;DHT22;3721;44.490;11.220;2022-08-18T05:25:47;25.40;89.40
7362;DHT22;3721;44.490;11.220;2022-08-18T05:28:14;25.40;89.40
7362;DHT22;3721;44.490;11.220;2022-08-18T05:30:41;25.40;89.40
7362;DHT22;3721;44.490;11.220;2022-08-18T05:33:07;25.40;89.20
7362;DHT22;3721;44.490;11.220;2022-08-18T05:35:42;25.40;89.30
7362;DHT22;3721;44.490;11.220;2022-08-18T05:40:40;25.40;89.30
7362;DHT22;3721;44.490;11.220;2022-08-18T05:43:07;25.40;89.30
7362;DHT22;3721;44.490;11.220;2022-08-18T05:45:34;25.40;89.30
7362;DHT22;3721;44.490;11.220;2022-08-18T05:48:00;25.40;89.40
7362;DHT22;3721;44.490;11.220;2022-08-18T05:50:27;25.40;89.50
7362;DHT22;3721;44.490;11.220;2022-08-18T05:53:16;25.40;89.60
7362;DHT22;3721;44.490;11.220;2022-08-18T05:55:51;25.40;89.80
7362;DHT22;3721;44.490;11.220;2022-08-18T05:58:41;25.40;89.60
7362;DHT22;3721;44.490;11.220;2022-08-18T06:01:24;25.40;89.60
7362;DHT22;3721;44.490;11.220;2022-08-18T06:04:18;25.50;89.80
7362;DHT22;3721;44.490;11.220;2022-08-18T06:06:46;25.50;90.00
7362;DHT22;3721;44.490;11.220;2022-08-18T06:09:32;25.40;90.00
7362;DHT22;3721;44.490;11.220;2022-08-18T06:12:15;25.40;90.20
7362;DHT22;3721;44.490;11.220;2022-08-18T06:14:43;25.40;90.40
7362;DHT22;3721;44.490;11.220;2022-08-18T06:23:00;25.40;90.90
7362;DHT22;3721;44.490;11.220;2022-08-18T06:26:00;25.40;91.10
7362;DHT22;3721;44.490;11.220;2022-08-18T06:28:57;25.40;91.20
7362;DHT22;3721;44.490;11.220;2022-08-18T06:31:41;25.40;91.30
7362;DHT22;3721;44.490;11.220;2022-08-18T06:37:19;25.30;91.50
7362;DHT22;3721;44.490;11.220;2022-08-18T06:39:49;25.20;91.80
7362;DHT22;3721;44.490;11.220;2022-08-18T06:42:26;25.10;92.10
7362;DHT22;3721;44.490;11.220;2022-08-18T06:45:02;25.00;92.30
7362;DHT22;3721;44.490;11.220;2022-08-18T06:47:38;25.00;92.50
7362;DHT22;3721;44.490;11.220;2022-08-18T06:52:53;24.90;92.90
7362;DHT22;3721;44.490;11.220;2022-08-18T06:57:59;24.80;93.30
7362;DHT22;3721;44.490;11.220;2022-08-18T07:00:31;24.80;93.60
7362;DHT22;3721;44.490;11.220;2022-08-18T07:05:34;24.80;93.90
7362;DHT22;3721;44.490;11.220;2022-08-18T07:10:44;24.80;94.20
7362;DHT22;3721;44.490;11.220;2022-08-18T07:15:43;24.80;94.40
7362;DHT22;3721;44.490;11.220;2022-08-18T07:18:11;24.80;94.40
7362;DHT22;3721;44.490;11.220;2022-08-18T07:20:46;24.80;94.50
7362;DHT22;3721;44.490;11.220;2022-08-18T07:25:59;24.90;94.80
7362;DHT22;3721;44.490;11.220;2022-08-18T07:28:34;24.90;94.70
7362;DHT22;3721;44.490;11.220;2022-08-18T07:31:37;24.90;94.70
7362;DHT22;3721;44.490;11.220;2022-08-18T07:47:07;24.90;95.40
7362;DHT22;3721;44.490;11.220;2022-08-18T07:49:46;24.90;95.50
7362;DHT22;3721;44.490;11.220;2022-08-18T07:55:02;25.00;95.60
7362;DHT22;3721;44.490;11.220;2022-08-18T08:05:41;24.90;95.80
7362;DHT22;3721;44.490;11.220;2022-08-18T08:22:19;24.90;96.20
7362;DHT22;3721;44.490;11.220;2022-08-18T08:30:29;24.90;96.20
7362;DHT22;3721;44.490;11.220;2022-08-18T08:33:22;24.90;96.20
7362;DHT22;3721;44.490;11.220;2022-08-18T08:35:55;24.90;96.20
7362;DHT22;3721;44.490;11.220;2022-08-18T08:38:45;24.90;96.30
7362;DHT22;3721;44.490;11.220;2022-08-18T08:41:12;24.90;96.30
7362;DHT22;3721;44.490;11.220;2022-08-18T08:43:44;24.90;96.50
7362;DHT22;3721;44.490;11.220;2022-08-18T08:46:20;24.90;96.60
7362;DHT22;3721;44.490;11.220;2022-08-18T08:48:55;24.90;96.80
7362;DHT22;3721;44.490;11.220;2022-08-18T08:51:35;24.90;96.90
7362;DHT22;3721;44.490;11.220;2022-08-18T08:54:13;24.90;97.00
7362;DHT22;3721;44.490;11.220;2022-08-18T08:56:46;24.90;97.10
7362;DHT22;3721;44.490;11.220;2022-08-18T08:59:16;24.90;97.20
7362;DHT22;3721;44.490;11.220;2022-08-18T09:15:14;24.70;98.40
7362;DHT22;3721;44.490;11.220;2022-08-18T09:18:14;24.60;98.70
7362;DHT22;3721;44.490;11.220;2022-08-18T09:23:44;24.60;99.20
7362;DHT22;3721;44.490;11.220;2022-08-18T09:29:13;24.60;99.50
7362;DHT22;3721;44.490;11.220;2022-08-18T09:31:40;24.60;99.60
7362;DHT22;3721;44.490;11.220;2022-08-18T09:42:25;24.30;99.90
7362;DHT22;3721;44.490;11.220;2022-08-18T09:49:52;24.10;99.90
7362;DHT22;3721;44.490;11.220;2022-08-18T09:54:57;24.00;99.90
7362;DHT22;3721;44.490;11.220;2022-08-18T09:57:35;23.90;99.90
7362;DHT22;3721;44.490;11.220;2022-08-18T10:10:47;23.50;99.90
7362;DHT22;3721;44.490;11.220;2022-08-18T10:13:25;23.40;99.90
7362;DHT22;3721;44.490;11.220;2022-08-18T10:18:51;23.30;99.90
7362;DHT22;3721;44.490;11.220;2022-08-18T10:21:22;23.30;99.90
7362;DHT22;3721;44.490;11.220;2022-08-18T10:24:12;23.30;99.90
7362;DHT22;3721;44.490;11.220;2022-08-18T10:34:44;23.30;99.90
7362;DHT22;3721;44.490;11.220;2022-08-18T10:42:51;23.30;99.90
7362;DHT22;3721;44.490;11.220;2022-08-18T10:45:25;23.30;99.90
7362;DHT22;3721;44.490;11.220;2022-08-18T10:53:15;23.50;99.90
7362;DHT22;3721;44.490;11.220;2022-08-18T10:55:55;23.60;99.90
7362;DHT22;3721;44.490;11.220;2022-08-18T11:01:09;23.70;99.90
7362;DHT22;3721;44.490;11.220;2022-08-18T11:06:20;24.00;99.90
7362;DHT22;3721;44.490;11.220;2022-08-18T11:08:52;24.10;99.90
7362;DHT22;3721;44.490;11.220;2022-08-18T11:11:25;24.20;99.90
7362;DHT22;3721;44.490;11.220;2022-08-18T11:14:07;24.40;99.90
7362;DHT22;3721;44.490;11.220;2022-08-18T11:19:13;24.60;99.90
7362;DHT22;3721;44.490;11.220;2022-08-18T11:21:43;24.80;99.90
7362;DHT22;3721;44.490;11.220;2022-08-18T11:24:20;24.80;99.90
7362;DHT22;3721;44.490;11.220;2022-08-18T11:26:53;24.90;99.90
7362;DHT22;3721;44.490;11.220;2022-08-18T11:29:29;24.90;99.90
7362;DHT22;3721;44.490;11.220;2022-08-18T11:32:13;25.00;99.90
7362;DHT22;3721;44.490;11.220;2022-08-18T11:37:49;25.30;99.90
7362;DHT22;3721;44.490;11.220;2022-08-18T11:45:57;25.50;99.90
7362;DHT22;3721;44.490;11.220;2022-08-18T11:48:39;25.50;99.90
7362;DHT22;3721;44.490;11.220;2022-08-18T11:51:18;25.60;99.90
7362;DHT22;3721;44.490;11.220;2022-08-18T11:56:15;25.70;99.90
7362;DHT22;3721;44.490;11.220;2022-08-18T12:01:51;25.80;99.90
7362;DHT22;3721;44.490;11.220;2022-08-18T12:07:27;26.00;99.90
7362;DHT22;3721;44.490;11.220;2022-08-18T12:10:25;26.00;99.90
7362;DHT22;3721;44.490;11.220;2022-08-18T12:12:53;26.00;99.90
7362;DHT22;3721;44.490;11.220;2022-08-18T12:17:46;26.10;99.90
7362;DHT22;3721;44.490;11.220;2022-08-18T12:20:13;26.10;99.90
7362;DHT22;3721;44.490;11.220;2022-08-18T12:22:41;26.10;99.90
7362;DHT22;3721;44.490;11.220;2022-08-18T12:25:10;26.20;99.50
7362;DHT22;3721;44.490;11.220;2022-08-18T12:27:36;26.20;99.20
7362;DHT22;3721;44.490;11.220;2022-08-18T12:30:04;26.20;98.90
7362;DHT22;3721;44.490;11.220;2022-08-18T12:32:32;26.30;98.50
7362;DHT22;3721;44.490;11.220;2022-08-18T12:34:59;26.30;97.80
7362;DHT22;3721;44.490;11.220;2022-08-18T12:37:27;26.40;97.30
7362;DHT22;3721;44.490;11.220;2022-08-18T12:39:55;26.40;97.00
7362;DHT22;3721;44.490;11.220;2022-08-18T12:42:22;26.50;96.80
7362;DHT22;3721;44.490;11.220;2022-08-18T12:44:48;26.50;96.80
7362;DHT22;3721;44.490;11.220;2022-08-18T12:47:25;26.60;96.30
7362;DHT22;3721;44.490;11.220;2022-08-18T12:49:51;26.60;95.80
7362;DHT22;3721;44.490;11.220;2022-08-18T12:52:18;26.70;95.40
7362;DHT22;3721;44.490;11.220;2022-08-18T12:54:44;26.70;95.20
7362;DHT22;3721;44.490;11.220;2022-08-18T12:57:23;26.70;94.90
7362;DHT22;3721;44.490;11.220;2022-08-18T12:59:49;26.70;94.70
7362;DHT22;3721;44.490;11.220;2022-08-18T13:02:15;26.70;94.60
7362;DHT22;3721;44.490;11.220;2022-08-18T13:04:41;26.70;94.50
7362;DHT22;3721;44.490;11.220;2022-08-18T13:07:10;26.70;94.50
7362;DHT22;3721;44.490;11.220;2022-08-18T13:09:37;26.70;94.40
7362;DHT22;3721;44.490;11.220;2022-08-18T13:12:03;26.70;94.40
7362;DHT22;3721;44.490;11.220;2022-08-18T13:14:30;26.80;94.30
7362;DHT22;3721;44.490;11.220;2022-08-18T13:16:56;26.80;94.10
7362;DHT22;3721;44.490;11.220;2022-08-18T13:19:22;26.70;93.70
7362;DHT22;3721;44.490;11.220;2022-08-18T13:21:48;26.70;93.50
7362;DHT22;3721;44.490;11.220;2022-08-18T13:24:14;26.70;93.40
7362;DHT22;3721;44.490;11.220;2022-08-18T13:26:44;26.80;93.30
7362;DHT22;3721;44.490;11.220;2022-08-18T13:29:11;26.70;93.10
7362;DHT22;3721;44.490;11.220;2022-08-18T13:31:37;26.80;93.20
7362;DHT22;3721;44.490;11.220;2022-08-18T13:34:04;26.80;93.20
7362;DHT22;3721;44.490;11.220;2022-08-18T13:36:31;26.90;93.30
7362;DHT22;3721;44.490;11.220;2022-08-18T13:39:17;26.90;93.30
7362;DHT22;3721;44.490;11.220;2022-08-18T13:41:44;27.00;93.10
7362;DHT22;3721;44.490;11.220;2022-08-18T13:44:11;27.00;92.90
7362;DHT22;3721;44.490;11.220;2022-08-18T13:46:38;27.00;92.90
7362;DHT22;3721;44.490;11.220;2022-08-18T13:49:20;27.00;92.50
7362;DHT22;3721;44.490;11.220;2022-08-18T13:51:47;27.10;92.40
7362;DHT22;3721;44.490;11.220;2022-08-18T13:54:24;27.10;92.20
7362;DHT22;3721;44.490;11.220;2022-08-18T13:56:51;27.10;91.70
7362;DHT22;3721;44.490;11.220;2022-08-18T13:59:18;27.00;91.60
7362;DHT22;3721;44.490;11.220;2022-08-18T14:01:46;27.00;91.60
7362;DHT22;3721;44.490;11.220;2022-08-18T14:04:14;27.10;91.50
7362;DHT22;3721;44.490;11.220;2022-08-18T14:06:40;27.00;91.30
7362;DHT22;3721;44.490;11.220;2022-08-18T14:09:06;27.10;91.20
7362;DHT22;3721;44.490;11.220;2022-08-18T14:11:33;27.00;91.00
7362;DHT22;3721;44.490;11.220;2022-08-18T14:14:01;27.00;90.90
7362;DHT22;3721;44.490;11.220;2022-08-18T14:16:26;27.00;90.70
7362;DHT22;3721;44.490;11.220;2022-08-18T14:18:53;27.00;91.00
7362;DHT22;3721;44.490;11.220;2022-08-18T14:21:52;27.00;91.30
7362;DHT22;3721;44.490;11.220;2022-08-18T14:24:37;27.00;91.60
7362;DHT22;3721;44.490;11.220;2022-08-18T14:27:31;27.00;91.70
7362;DHT22;3721;44.490;11.220;2022-08-18T14:29:59;27.00;91.70
7362;DHT22;3721;44.490;11.220;2022-08-18T14:32:26;27.00;91.70
7362;DHT22;3721;44.490;11.220;2022-08-18T14:34:54;27.00;91.70
7362;DHT22;3721;44.490;11.220;2022-08-18T14:37:20;27.00;91.60
7362;DHT22;3721;44.490;11.220;2022-08-18T14:39:46;27.10;91.60
7362;DHT22;3721;44.490;11.220;2022-08-18T14:42:14;27.10;91.40
7362;DHT22;3721;44.490;11.220;2022-08-18T14:44:40;27.00;91.10
7362;DHT22;3721;44.490;11.220;2022-08-18T14:47:06;27.00;91.00
7362;DHT22;3721;44.490;11.220;2022-08-18T14:49:32;27.10;91.10
7362;DHT22;3721;44.490;11.220;2022-08-18T14:52:00;27.10;91.30
7362;DHT22;3721;44.490;11.220;2022-08-18T14:54:26;27.10;90.90
7362;DHT22;3721;44.490;11.220;2022-08-18T14:56:51;27.10;90.80
7362;DHT22;3721;44.490;11.220;2022-08-18T14:59:17;27.00;90.70
7362;DHT22;3721;44.490;11.220;2022-08-18T15:01:43;27.00;90.80
7362;DHT22;3721;44.490;11.220;2022-08-18T15:04:09;27.00;91.00
7362;DHT22;3721;44.490;11.220;2022-08-18T15:06:36;27.00;90.70
7362;DHT22;3721;44.490;11.220;2022-08-18T15:09:02;27.00;90.60
7362;DHT22;3721;44.490;11.220;2022-08-18T15:11:28;27.00;90.60
7362;DHT22;3721;44.490;11.220;2022-08-18T15:13:53;27.00;90.90
7362;DHT22;3721;44.490;11.220;2022-08-18T15:16:19;27.00;90.60
7362;DHT22;3721;44.490;11.220;2022-08-18T15:18:47;27.00;90.60
7362;DHT22;3721;44.490;11.220;2022-08-18T15:21:14;27.00;90.50
7362;DHT22;3721;44.490;11.220;2022-08-18T15:23:59;27.00;90.60
7362;DHT22;3721;44.490;11.220;2022-08-18T15:26:43;27.00;90.60
7362;DHT22;3721;44.490;11.220;2022-08-18T15:29:10;27.00;90.60
7362;DHT22;3721;44.490;11.220;2022-08-18T15:31:37;27.00;90.60
7362;DHT22;3721;44.490;11.220;2022-08-18T15:34:04;27.00;90.70
7362;DHT22;3721;44.490;11.220;2022-08-18T15:36:31;27.00;90.60
7362;DHT22;3721;44.490;11.220;2022-08-18T15:38:59;27.00;90.50
7362;DHT22;3721;44.490;11.220;2022-08-18T15:43:59;27.00;90.50
7362;DHT22;3721;44.490;11.220;2022-08-18T15:46:27;27.00;90.40
7362;DHT22;3721;44.490;11.220;2022-08-18T15:48:54;27.00;90.40
7362;DHT22;3721;44.490;11.220;2022-08-18T15:51:19;26.90;90.40
7362;DHT22;3721;44.490;11.220;2022-08-18T15:53:45;26.90;90.30
7362;DHT22;3721;44.490;11.220;2022-08-18T15:56:16;26.90;90.20
7362;DHT22;3721;44.490;11.220;2022-08-18T15:58:43;26.90;90.10
7362;DHT22;3721;44.490;11.220;2022-08-18T16:01:12;26.80;90.00
7362;DHT22;3721;44.490;11.220;2022-08-18T16:03:38;26.80;90.10
7362;DHT22;3721;44.490;11.220;2022-08-18T16:06:05;26.80;90.10
7362;DHT22;3721;44.490;11.220;2022-08-18T16:08:32;26.80;90.10
7362;DHT22;3721;44.490;11.220;2022-08-18T16:11:06;26.80;90.20
7362;DHT22;3721;44.490;11.220;2022-08-18T16:13:32;26.80;90.20
7362;DHT22;3721;44.490;11.220;2022-08-18T16:15:58;26.80;90.20
7362;DHT22;3721;44.490;11.220;2022-08-18T16:18:24;26.80;90.20
7362;DHT22;3721;44.490;11.220;2022-08-18T16:20:51;26.80;90.10
7362;DHT22;3721;44.490;11.220;2022-08-18T16:23:17;26.80;90.00
7362;DHT22;3721;44.490;11.220;2022-08-18T16:25:43;26.90;90.10
7362;DHT22;3721;44.490;11.220;2022-08-18T16:28:10;26.80;90.00
7362;DHT22;3721;44.490;11.220;2022-08-18T16:30:38;26.80;89.60
7362;DHT22;3721;44.490;11.220;2022-08-18T16:33:05;26.80;89.40
7362;DHT22;3721;44.490;11.220;2022-08-18T16:35:32;26.70;89.20
7362;DHT22;3721;44.490;11.220;2022-08-18T16:38:06;26.70;89.10
7362;DHT22;3721;44.490;11.220;2022-08-18T16:40:33;26.70;89.00
7362;DHT22;3721;44.490;11.220;2022-08-18T16:42:58;26.70;88.80
7362;DHT22;3721;44.490;11.220;2022-08-18T16:45:25;26.70;88.60
7362;DHT22;3721;44.490;11.220;2022-08-18T16:47:53;26.60;88.60
7362;DHT22;3721;44.490;11.220;2022-08-18T16:50:18;26.60;88.50
7362;DHT22;3721;44.490;11.220;2022-08-18T16:52:44;26.60;89.00
7362;DHT22;3721;44.490;11.220;2022-08-18T16:55:11;26.60;90.00
7362;DHT22;3721;44.490;11.220;2022-08-18T16:57:38;26.50;90.20
7362;DHT22;3721;44.490;11.220;2022-08-18T17:00:24;26.20;90.50
7362;DHT22;3721;44.490;11.220;2022-08-18T17:03:09;26.00;91.00
7362;DHT22;3721;44.490;11.220;2022-08-18T17:06:02;25.90;91.30
7362;DHT22;3721;44.490;11.220;2022-08-18T17:08:28;25.80;91.90
7362;DHT22;3721;44.490;11.220;2022-08-18T17:10:57;25.60;92.20
7362;DHT22;3721;44.490;11.220;2022-08-18T17:13:23;25.50;92.60
7362;DHT22;3721;44.490;11.220;2022-08-18T17:15:49;25.40;92.90
7362;DHT22;3721;44.490;11.220;2022-08-18T17:18:16;25.30;93.50
7362;DHT22;3721;44.490;11.220;2022-08-18T17:20:41;25.30;94.10
7362;DHT22;3721;44.490;11.220;2022-08-18T17:23:07;25.30;94.50
7362;DHT22;3721;44.490;11.220;2022-08-18T17:25:34;25.30;94.90
7362;DHT22;3721;44.490;11.220;2022-08-18T17:28:01;25.30;95.20
7362;DHT22;3721;44.490;11.220;2022-08-18T17:30:31;25.30;95.50
7362;DHT22;3721;44.490;11.220;2022-08-18T17:33:02;25.30;95.90
7362;DHT22;3721;44.490;11.220;2022-08-18T17:35:37;25.30;96.20
7362;DHT22;3721;44.490;11.220;2022-08-18T17:38:11;25.30;96.40
7362;DHT22;3721;44.490;11.220;2022-08-18T17:40:43;25.30;96.70
7362;DHT22;3721;44.490;11.220;2022-08-18T17:43:13;25.30;96.80
7362;DHT22;3721;44.490;11.220;2022-08-18T17:45:39;25.30;97.00
7362;DHT22;3721;44.490;11.220;2022-08-18T17:48:26;25.30;97.10
7362;DHT22;3721;44.490;11.220;2022-08-18T17:53:45;25.30;97.10
7362;DHT22;3721;44.490;11.220;2022-08-18T17:56:22;25.20;97.20
7362;DHT22;3721;44.490;11.220;2022-08-18T17:59:22;25.20;97.30
7362;DHT22;3721;44.490;11.220;2022-08-18T18:04:40;25.20;97.90
7362;DHT22;3721;44.490;11.220;2022-08-18T18:07:20;25.10;98.10
7362;DHT22;3721;44.490;11.220;2022-08-18T18:09:53;25.10;98.10
7362;DHT22;3721;44.490;11.220;2022-08-18T18:12:23;25.00;98.10
7362;DHT22;3721;44.490;11.220;2022-08-18T18:14:49;25.00;98.10
7362;DHT22;3721;44.490;11.220;2022-08-18T18:17:20;25.00;98.30
7362;DHT22;3721;44.490;11.220;2022-08-18T18:19:55;25.00;98.40
7362;DHT22;3721;44.490;11.220;2022-08-18T18:22:27;25.00;98.40
7362;DHT22;3721;44.490;11.220;2022-08-18T18:24:59;25.00;98.30
7362;DHT22;3721;44.490;11.220;2022-08-18T18:30:03;25.00;98.50
7362;DHT22;3721;44.490;11.220;2022-08-18T18:32:51;25.00;98.40
7362;DHT22;3721;44.490;11.220;2022-08-18T18:38:37;24.90;98.60
7362;DHT22;3721;44.490;11.220;2022-08-18T18:41:26;24.90;98.70
7362;DHT22;3721;44.490;11.220;2022-08-18T18:44:07;24.90;98.70
7362;DHT22;3721;44.490;11.220;2022-08-18T18:57:00;24.90;98.90
7362;DHT22;3721;44.490;11.220;2022-08-18T19:00:05;24.90;99.00
7362;DHT22;3721;44.490;11.220;2022-08-18T19:13:52;24.80;99.30
7362;DHT22;3721;44.490;11.220;2022-08-18T19:19:02;24.80;99.10
7362;DHT22;3721;44.490;11.220;2022-08-18T19:21:29;24.80;99.00
7362;DHT22;3721;44.490;11.220;2022-08-18T19:24:16;24.80;98.90
7362;DHT22;3721;44.490;11.220;2022-08-18T19:26:51;24.80;98.90
7362;DHT22;3721;44.490;11.220;2022-08-18T19:29:44;24.80;98.90
7362;DHT22;3721;44.490;11.220;2022-08-18T19:32:43;24.80;98.90
7362;DHT22;3721;44.490;11.220;2022-08-18T19:39:05;24.80;98.90
7362;DHT22;3721;44.490;11.220;2022-08-18T19:41:56;24.80;99.20